sensor_id;sensor_type;location;lat;lon;timestamp;temperature;humidity
2929;DHT22;1474;51.460;7.150;2023-07-02T00:01:47;18.00;78.20
2929;DHT22;1474;51.460;7.150;2023-07-02T00:04:14;18.10;78.30
2929;DHT22;1474;51.460;7.150;2023-07-02T00:06:45;18.10;78.20
2929;DHT22;1474;51.460;7.150;2023-07-02T00:09:12;18.10;78.30
2929;DHT22;1474;51.460;7.150;2023-07-02T00:11:41;18.10;78.30
2929;DHT22;1474;51.460;7.150;2023-07-02T00:14:09;18.00;77.90
2929;DHT22;1474;51.460;7.150;2023-07-02T00:16:37;18.00;78.10
2929;DHT22;1474;51.460;7.150;2023-07-02T00:19:04;18.00;78.30
2929;DHT22;1474;51.460;7.150;2023-07-02T00:21:30;18.00;78.20
2929;DHT22;1474;51.460;7.150;2023-07-02T00:23:59;18.00;78.00
2929;DHT22;1474;51.460;7.150;2023-07-02T00:26:26;18.00;77.90
2929;DHT22;1474;51.460;7.150;2023-07-02T00:28:54;18.00;78.00
2929;DHT22;1474;51.460;7.150;2023-07-02T00:31:21;18.00;78.60
2929;DHT22;1474;51.460;7.150;2023-07-02T00:33:48;18.00;78.00
2929;DHT22;1474;51.460;7.150;2023-07-02T00:36:14;18.00;77.90
2929;DHT22;1474;51.460;7.150;2023-07-02T00:38:45;18.00;77.60
2929;DHT22;1474;51.460;7.150;2023-07-02T00:41:13;17.90;78.00
2929;DHT22;1474;51.460;7.150;2023-07-02T00:43:39;17.90;77.90
2929;DHT22;1474;51.460;7.150;2023-07-02T00:46:18;17.90;77.70
2929;DHT22;1474;51.460;7.150;2023-07-02T00:48:50;17.90;77.70
2929;DHT22;1474;51.460;7.150;2023-07-02T00:51:18;17.90;77.70
2929;DHT22;1474;51.460;7.150;2023-07-02T00:53:50;17.90;77.70
2929;DHT22;1474;51.460;7.150;2023-07-02T00:56:18;17.90;77.70
2929;DHT22;1474;51.460;7.150;2023-07-02T00:58:46;17.90;77.70
2929;DHT22;1474;51.460;7.150;2023-07-02T01:01:21;17.90;77.00
2929;DHT22;1474;51.460;7.150;2023-07-02T01:03:55;17.90;77.30
2929;DHT22;1474;51.460;7.150;2023-07-02T01:06:29;17.80;77.60
2929;DHT22;1474;51.460;7.150;2023-07-02T01:09:04;17.80;77.10
2929;DHT22;1474;51.460;7.150;2023-07-02T01:11:38;17.80;77.20
2929;DHT22;1474;51.460;7.150;2023-07-02T01:16:57;17.80;77.10
2929;DHT22;1474;51.460;7.150;2023-07-02T01:19:49;17.80;77.20
2929;DHT22;1474;51.460;7.150;2023-07-02T01:22:22;17.80;76.80
2929;DHT22;1474;51.460;7.150;2023-07-02T01:24:50;17.80;77.00
2929;DHT22;1474;51.460;7.150;2023-07-02T01:27:17;17.80;77.00
2929;DHT22;1474;51.460;7.150;2023-07-02T01:29:44;17.70;76.90
2929;DHT22;1474;51.460;7.150;2023-07-02T01:32:13;17.70;76.70
2929;DHT22;1474;51.460;7.150;2023-07-02T01:34:40;17.70;76.90
2929;DHT22;1474;51.460;7.150;2023-07-02T01:37:06;17.60;76.70
2929;DHT22;1474;51.460;7.150;2023-07-02T01:39:33;17.60;77.20
2929;DHT22;1474;51.460;7.150;2023-07-02T01:42:15;17.40;77.50
2929;DHT22;1474;51.460;7.150;2023-07-02T01:44:44;17.40;77.60
2929;DHT22;1474;51.460;7.150;2023-07-02T01:47:11;17.40;77.60
2929;DHT22;1474;51.460;7.150;2023-07-02T01:49:37;17.30;77.70
2929;DHT22;1474;51.460;7.150;2023-07-02T01:52:05;17.30;77.80
2929;DHT22;1474;51.460;7.150;2023-07-02T01:54:32;17.30;77.80
2929;DHT22;1474;51.460;7.150;2023-07-02T01:56:59;17.30;77.90
2929;DHT22;1474;51.460;7.150;2023-07-02T01:59:25;17.30;78.30
2929;DHT22;1474;51.460;7.150;2023-07-02T02:01:51;17.20;78.20
2929;DHT22;1474;51.460;7.150;2023-07-02T02:04:17;17.30;78.20
2929;DHT22;1474;51.460;7.150;2023-07-02T02:06:43;17.20;78.20
2929;DHT22;1474;51.460;7.150;2023-07-02T02:09:10;17.20;77.60
2929;DHT22;1474;51.460;7.150;2023-07-02T02:11:42;17.30;77.90
2929;DHT22;1474;51.460;7.150;2023-07-02T02:14:10;17.20;77.30
2929;DHT22;1474;51.460;7.150;2023-07-02T02:16:36;17.20;77.60
2929;DHT22;1474;51.460;7.150;2023-07-02T02:19:02;17.20;77.50
2929;DHT22;1474;51.460;7.150;2023-07-02T02:21:28;17.20;77.10
2929;DHT22;1474;51.460;7.150;2023-07-02T02:23:54;17.20;76.50
2929;DHT22;1474;51.460;7.150;2023-07-02T02:26:21;17.20;76.30
2929;DHT22;1474;51.460;7.150;2023-07-02T02:28:48;17.20;76.50
2929;DHT22;1474;51.460;7.150;2023-07-02T02:31:16;17.20;76.50
2929;DHT22;1474;51.460;7.150;2023-07-02T02:33:42;17.20;76.50
2929;DHT22;1474;51.460;7.150;2023-07-02T02:36:08;17.20;75.90
2929;DHT22;1474;51.460;7.150;2023-07-02T02:38:34;17.20;75.80
2929;DHT22;1474;51.460;7.150;2023-07-02T02:41:00;17.10;75.80
2929;DHT22;1474;51.460;7.150;2023-07-02T02:43:27;17.10;75.70
2929;DHT22;1474;51.460;7.150;2023-07-02T02:45:53;17.10;75.30
2929;DHT22;1474;51.460;7.150;2023-07-02T02:48:19;17.10;75.40
2929;DHT22;1474;51.460;7.150;2023-07-02T02:50:45;17.10;75.50
2929;DHT22;1474;51.460;7.150;2023-07-02T02:53:11;17.10;75.30
2929;DHT22;1474;51.460;7.150;2023-07-02T02:55:37;17.10;75.50
2929;DHT22;1474;51.460;7.150;2023-07-02T02:58:03;17.00;75.30
2929;DHT22;1474;51.460;7.150;2023-07-02T03:00:29;17.00;75.50
2929;DHT22;1474;51.460;7.150;2023-07-02T03:02:55;17.00;74.80
2929;DHT22;1474;51.460;7.150;2023-07-02T03:05:22;17.00;75.40
2929;DHT22;1474;51.460;7.150;2023-07-02T03:07:49;17.10;75.00
2929;DHT22;1474;51.460;7.150;2023-07-02T03:10:16;17.00;75.30
2929;DHT22;1474;51.460;7.150;2023-07-02T03:12:42;17.00;75.00
2929;DHT22;1474;51.460;7.150;2023-07-02T03:15:08;17.00;75.30
2929;DHT22;1474;51.460;7.150;2023-07-02T03:17:36;17.00;75.40
2929;DHT22;1474;51.460;7.150;2023-07-02T03:20:02;17.00;75.20
2929;DHT22;1474;51.460;7.150;2023-07-02T03:22:33;17.00;75.10
2929;DHT22;1474;51.460;7.150;2023-07-02T03:25:00;17.00;75.00
2929;DHT22;1474;51.460;7.150;2023-07-02T03:27:26;17.00;75.40
2929;DHT22;1474;51.460;7.150;2023-07-02T03:29:52;17.00;75.40
2929;DHT22;1474;51.460;7.150;2023-07-02T03:32:18;17.00;75.30
2929;DHT22;1474;51.460;7.150;2023-07-02T03:34:43;17.00;75.30
2929;DHT22;1474;51.460;7.150;2023-07-02T03:37:09;17.10;75.20
2929;DHT22;1474;51.460;7.150;2023-07-02T03:39:35;17.10;74.90
2929;DHT22;1474;51.460;7.150;2023-07-02T03:42:01;17.00;75.20
2929;DHT22;1474;51.460;7.150;2023-07-02T03:44:26;17.10;75.10
2929;DHT22;1474;51.460;7.150;2023-07-02T03:46:53;17.10;75.30
2929;DHT22;1474;51.460;7.150;2023-07-02T03:49:19;17.10;75.20
2929;DHT22;1474;51.460;7.150;2023-07-02T03:51:45;17.10;75.30
2929;DHT22;1474;51.460;7.150;2023-07-02T03:54:11;17.10;75.00
2929;DHT22;1474;51.460;7.150;2023-07-02T03:56:37;17.10;75.10
2929;DHT22;1474;51.460;7.150;2023-07-02T03:59:02;17.10;75.20
2929;DHT22;1474;51.460;7.150;2023-07-02T04:01:28;17.10;75.20
2929;DHT22;1474;51.460;7.150;2023-07-02T04:03:55;17.10;75.20
2929;DHT22;1474;51.460;7.150;2023-07-02T04:06:22;17.20;75.90
2929;DHT22;1474;51.460;7.150;2023-07-02T04:08:48;17.20;75.40
2929;DHT22;1474;51.460;7.150;2023-07-02T04:11:14;17.20;75.10
2929;DHT22;1474;51.460;7.150;2023-07-02T04:13:40;17.10;74.90
2929;DHT22;1474;51.460;7.150;2023-07-02T04:16:06;17.20;75.20
2929;DHT22;1474;51.460;7.150;2023-07-02T04:18:33;17.10;75.20
2929;DHT22;1474;51.460;7.150;2023-07-02T04:21:00;17.10;75.20
2929;DHT22;1474;51.460;7.150;2023-07-02T04:23:26;17.10;75.30
2929;DHT22;1474;51.460;7.150;2023-07-02T04:25:52;17.00;75.40
2929;DHT22;1474;51.460;7.150;2023-07-02T04:28:18;17.00;75.50
2929;DHT22;1474;51.460;7.150;2023-07-02T04:30:44;17.00;75.80
2929;DHT22;1474;51.460;7.150;2023-07-02T04:33:10;17.10;75.70
2929;DHT22;1474;51.460;7.150;2023-07-02T04:35:39;17.10;75.80
2929;DHT22;1474;51.460;7.150;2023-07-02T04:38:05;17.10;75.80
2929;DHT22;1474;51.460;7.150;2023-07-02T04:40:31;17.10;75.50
2929;DHT22;1474;51.460;7.150;2023-07-02T04:42:57;17.20;75.70
2929;DHT22;1474;51.460;7.150;2023-07-02T04:45:27;17.20;75.80
2929;DHT22;1474;51.460;7.150;2023-07-02T04:47:57;17.20;75.60
2929;DHT22;1474;51.460;7.150;2023-07-02T04:50:25;17.20;75.50
2929;DHT22;1474;51.460;7.150;2023-07-02T04:52:50;17.20;75.60
2929;DHT22;1474;51.460;7.150;2023-07-02T04:55:16;17.20;75.60
2929;DHT22;1474;51.460;7.150;2023-07-02T04:57:42;17.30;75.60
2929;DHT22;1474;51.460;7.150;2023-07-02T05:00:10;17.30;75.50
2929;DHT22;1474;51.460;7.150;2023-07-02T05:02:36;17.30;75.50
2929;DHT22;1474;51.460;7.150;2023-07-02T05:05:02;17.40;75.60
2929;DHT22;1474;51.460;7.150;2023-07-02T05:07:28;17.40;75.20
2929;DHT22;1474;51.460;7.150;2023-07-02T05:09:54;17.40;75.00
2929;DHT22;1474;51.460;7.150;2023-07-02T05:12:19;17.40;75.10
2929;DHT22;1474;51.460;7.150;2023-07-02T05:14:45;17.40;75.00
2929;DHT22;1474;51.460;7.150;2023-07-02T05:17:11;17.40;74.90
2929;DHT22;1474;51.460;7.150;2023-07-02T05:19:40;17.40;75.00
2929;DHT22;1474;51.460;7.150;2023-07-02T05:22:06;17.50;75.10
2929;DHT22;1474;51.460;7.150;2023-07-02T05:24:33;17.50;75.00
2929;DHT22;1474;51.460;7.150;2023-07-02T05:26:59;17.60;74.70
2929;DHT22;1474;51.460;7.150;2023-07-02T05:29:24;17.80;75.00
2929;DHT22;1474;51.460;7.150;2023-07-02T05:31:50;18.00;73.70
2929;DHT22;1474;51.460;7.150;2023-07-02T05:34:16;18.20;73.30
2929;DHT22;1474;51.460;7.150;2023-07-02T05:36:41;18.30;73.40
2929;DHT22;1474;51.460;7.150;2023-07-02T05:39:07;18.30;71.90
2929;DHT22;1474;51.460;7.150;2023-07-02T05:41:33;18.30;72.20
2929;DHT22;1474;51.460;7.150;2023-07-02T05:44:00;18.30;72.00
2929;DHT22;1474;51.460;7.150;2023-07-02T05:46:26;18.30;72.30
2929;DHT22;1474;51.460;7.150;2023-07-02T05:48:51;18.30;72.80
2929;DHT22;1474;51.460;7.150;2023-07-02T05:51:21;18.30;72.20
2929;DHT22;1474;51.460;7.150;2023-07-02T05:53:47;18.30;72.20
2929;DHT22;1474;51.460;7.150;2023-07-02T05:56:13;18.30;72.30
2929;DHT22;1474;51.460;7.150;2023-07-02T05:58:39;18.30;71.60
2929;DHT22;1474;51.460;7.150;2023-07-02T06:01:05;18.40;71.80
2929;DHT22;1474;51.460;7.150;2023-07-02T06:03:31;18.50;72.20
2929;DHT22;1474;51.460;7.150;2023-07-02T06:05:58;18.50;71.80
2929;DHT22;1474;51.460;7.150;2023-07-02T06:08:24;18.70;72.30
2929;DHT22;1474;51.460;7.150;2023-07-02T06:10:49;18.80;72.00
2929;DHT22;1474;51.460;7.150;2023-07-02T06:13:16;19.00;71.20
2929;DHT22;1474;51.460;7.150;2023-07-02T06:15:43;19.00;70.20
2929;DHT22;1474;51.460;7.150;2023-07-02T06:18:09;19.10;69.70
2929;DHT22;1474;51.460;7.150;2023-07-02T06:20:35;19.20;69.90
2929;DHT22;1474;51.460;7.150;2023-07-02T06:23:00;19.30;69.90
2929;DHT22;1474;51.460;7.150;2023-07-02T06:25:26;19.50;69.30
2929;DHT22;1474;51.460;7.150;2023-07-02T06:27:52;19.60;69.00
2929;DHT22;1474;51.460;7.150;2023-07-02T06:30:21;19.70;67.40
2929;DHT22;1474;51.460;7.150;2023-07-02T06:32:47;19.70;66.30
2929;DHT22;1474;51.460;7.150;2023-07-02T06:35:13;19.80;65.70
2929;DHT22;1474;51.460;7.150;2023-07-02T06:37:39;19.80;65.70
2929;DHT22;1474;51.460;7.150;2023-07-02T06:40:05;19.80;65.20
2929;DHT22;1474;51.460;7.150;2023-07-02T06:42:31;19.90;66.30
2929;DHT22;1474;51.460;7.150;2023-07-02T06:44:58;19.90;66.70
2929;DHT22;1474;51.460;7.150;2023-07-02T06:47:24;20.00;64.90
2929;DHT22;1474;51.460;7.150;2023-07-02T06:49:52;20.10;64.90
2929;DHT22;1474;51.460;7.150;2023-07-02T06:52:18;20.10;61.80
2929;DHT22;1474;51.460;7.150;2023-07-02T06:54:44;20.20;62.10
2929;DHT22;1474;51.460;7.150;2023-07-02T06:57:10;20.20;62.30
2929;DHT22;1474;51.460;7.150;2023-07-02T06:59:36;20.20;60.90
2929;DHT22;1474;51.460;7.150;2023-07-02T07:02:02;20.20;60.20
2929;DHT22;1474;51.460;7.150;2023-07-02T07:04:28;20.20;58.60
2929;DHT22;1474;51.460;7.150;2023-07-02T07:06:54;20.10;60.00
2929;DHT22;1474;51.460;7.150;2023-07-02T07:09:21;20.20;58.80
2929;DHT22;1474;51.460;7.150;2023-07-02T07:11:47;20.30;58.60
2929;DHT22;1474;51.460;7.150;2023-07-02T07:14:13;20.30;56.20
2929;DHT22;1474;51.460;7.150;2023-07-02T07:16:39;20.40;56.40
2929;DHT22;1474;51.460;7.150;2023-07-02T07:19:05;20.50;57.30
2929;DHT22;1474;51.460;7.150;2023-07-02T07:21:33;20.60;56.80
2929;DHT22;1474;51.460;7.150;2023-07-02T07:23:59;20.70;57.40
2929;DHT22;1474;51.460;7.150;2023-07-02T07:26:25;20.70;55.70
2929;DHT22;1474;51.460;7.150;2023-07-02T07:28:51;20.80;56.80
2929;DHT22;1474;51.460;7.150;2023-07-02T07:31:17;20.80;56.70
2929;DHT22;1474;51.460;7.150;2023-07-02T07:33:42;20.70;55.20
2929;DHT22;1474;51.460;7.150;2023-07-02T07:36:09;20.60;53.80
2929;DHT22;1474;51.460;7.150;2023-07-02T07:38:35;20.70;54.60
2929;DHT22;1474;51.460;7.150;2023-07-02T07:41:00;20.70;55.50
2929;DHT22;1474;51.460;7.150;2023-07-02T07:43:26;20.80;54.20
2929;DHT22;1474;51.460;7.150;2023-07-02T07:45:52;20.80;53.40
2929;DHT22;1474;51.460;7.150;2023-07-02T07:48:18;20.90;55.50
2929;DHT22;1474;51.460;7.150;2023-07-02T07:50:43;20.90;53.70
2929;DHT22;1474;51.460;7.150;2023-07-02T07:53:09;20.90;53.60
2929;DHT22;1474;51.460;7.150;2023-07-02T07:55:35;21.00;53.80
2929;DHT22;1474;51.460;7.150;2023-07-02T07:58:00;21.00;54.40
2929;DHT22;1474;51.460;7.150;2023-07-02T08:00:26;21.00;54.10
2929;DHT22;1474;51.460;7.150;2023-07-02T08:02:52;21.00;54.50
2929;DHT22;1474;51.460;7.150;2023-07-02T08:05:21;21.10;53.50
2929;DHT22;1474;51.460;7.150;2023-07-02T08:07:48;21.10;52.70
2929;DHT22;1474;51.460;7.150;2023-07-02T08:10:14;20.90;53.00
2929;DHT22;1474;51.460;7.150;2023-07-02T08:12:40;20.90;52.50
2929;DHT22;1474;51.460;7.150;2023-07-02T08:15:06;20.80;53.50
2929;DHT22;1474;51.460;7.150;2023-07-02T08:17:32;20.80;53.10
2929;DHT22;1474;51.460;7.150;2023-07-02T08:19:58;20.80;51.30
2929;DHT22;1474;51.460;7.150;2023-07-02T08:22:24;20.80;53.00
2929;DHT22;1474;51.460;7.150;2023-07-02T08:24:49;20.80;52.60
2929;DHT22;1474;51.460;7.150;2023-07-02T08:27:16;20.80;51.50
2929;DHT22;1474;51.460;7.150;2023-07-02T08:29:49;20.90;52.50
2929;DHT22;1474;51.460;7.150;2023-07-02T08:32:15;21.00;50.60
2929;DHT22;1474;51.460;7.150;2023-07-02T08:34:41;21.00;50.60
2929;DHT22;1474;51.460;7.150;2023-07-02T08:37:07;21.00;51.60
2929;DHT22;1474;51.460;7.150;2023-07-02T08:39:33;20.90;50.40
2929;DHT22;1474;51.460;7.150;2023-07-02T08:41:58;20.90;51.10
2929;DHT22;1474;51.460;7.150;2023-07-02T08:44:24;20.80;51.90
2929;DHT22;1474;51.460;7.150;2023-07-02T08:46:52;20.70;50.10
2929;DHT22;1474;51.460;7.150;2023-07-02T08:49:20;20.60;50.40
2929;DHT22;1474;51.460;7.150;2023-07-02T08:51:46;20.60;51.90
2929;DHT22;1474;51.460;7.150;2023-07-02T08:54:12;20.70;51.20
2929;DHT22;1474;51.460;7.150;2023-07-02T08:56:39;20.90;48.90
2929;DHT22;1474;51.460;7.150;2023-07-02T08:59:09;21.00;47.90
2929;DHT22;1474;51.460;7.150;2023-07-02T09:01:53;21.00;49.40
2929;DHT22;1474;51.460;7.150;2023-07-02T09:04:23;21.10;48.60
2929;DHT22;1474;51.460;7.150;2023-07-02T09:07:10;21.20;47.60
2929;DHT22;1474;51.460;7.150;2023-07-02T09:09:46;21.10;48.50
2929;DHT22;1474;51.460;7.150;2023-07-02T09:12:27;21.10;49.60
2929;DHT22;1474;51.460;7.150;2023-07-02T09:14:59;21.20;49.30
2929;DHT22;1474;51.460;7.150;2023-07-02T09:17:36;21.30;50.10
2929;DHT22;1474;51.460;7.150;2023-07-02T09:20:05;21.40;50.00
2929;DHT22;1474;51.460;7.150;2023-07-02T09:22:35;21.40;47.30
2929;DHT22;1474;51.460;7.150;2023-07-02T09:25:02;21.40;47.40
2929;DHT22;1474;51.460;7.150;2023-07-02T09:27:35;21.40;47.10
2929;DHT22;1474;51.460;7.150;2023-07-02T09:30:15;21.40;48.80
2929;DHT22;1474;51.460;7.150;2023-07-02T09:32:45;21.60;49.30
2929;DHT22;1474;51.460;7.150;2023-07-02T09:35:11;21.50;48.80
2929;DHT22;1474;51.460;7.150;2023-07-02T09:37:40;21.60;47.20
2929;DHT22;1474;51.460;7.150;2023-07-02T09:40:08;21.80;49.10
2929;DHT22;1474;51.460;7.150;2023-07-02T09:42:39;22.10;48.70
2929;DHT22;1474;51.460;7.150;2023-07-02T09:45:08;22.40;49.70
2929;DHT22;1474;51.460;7.150;2023-07-02T09:47:42;22.60;44.50
2929;DHT22;1474;51.460;7.150;2023-07-02T09:50:13;22.70;45.90
2929;DHT22;1474;51.460;7.150;2023-07-02T09:52:42;22.60;46.10
2929;DHT22;1474;51.460;7.150;2023-07-02T09:55:11;22.80;46.20
2929;DHT22;1474;51.460;7.150;2023-07-02T09:57:38;22.80;45.60
2929;DHT22;1474;51.460;7.150;2023-07-02T10:00:06;22.90;46.50
2929;DHT22;1474;51.460;7.150;2023-07-02T10:02:33;23.00;47.00
2929;DHT22;1474;51.460;7.150;2023-07-02T10:04:59;23.20;45.80
2929;DHT22;1474;51.460;7.150;2023-07-02T10:07:30;23.30;46.40
2929;DHT22;1474;51.460;7.150;2023-07-02T10:09:57;23.10;46.30
2929;DHT22;1474;51.460;7.150;2023-07-02T10:12:25;22.90;46.70
2929;DHT22;1474;51.460;7.150;2023-07-02T10:14:54;22.80;47.30
2929;DHT22;1474;51.460;7.150;2023-07-02T10:19:55;22.50;46.10
2929;DHT22;1474;51.460;7.150;2023-07-02T10:22:22;22.40;48.20
2929;DHT22;1474;51.460;7.150;2023-07-02T10:24:58;22.40;47.80
2929;DHT22;1474;51.460;7.150;2023-07-02T10:27:53;22.20;47.00
2929;DHT22;1474;51.460;7.150;2023-07-02T10:30:31;22.10;46.70
2929;DHT22;1474;51.460;7.150;2023-07-02T10:33:27;22.00;47.90
2929;DHT22;1474;51.460;7.150;2023-07-02T10:35:53;21.80;48.70
2929;DHT22;1474;51.460;7.150;2023-07-02T10:38:25;21.60;47.00
2929;DHT22;1474;51.460;7.150;2023-07-02T10:40:58;21.50;47.80
2929;DHT22;1474;51.460;7.150;2023-07-02T10:43:30;21.50;47.70
2929;DHT22;1474;51.460;7.150;2023-07-02T10:46:00;21.40;46.30
2929;DHT22;1474;51.460;7.150;2023-07-02T10:48:28;21.40;47.30
2929;DHT22;1474;51.460;7.150;2023-07-02T10:50:54;21.60;46.00
2929;DHT22;1474;51.460;7.150;2023-07-02T10:53:20;21.80;46.20
2929;DHT22;1474;51.460;7.150;2023-07-02T10:55:52;21.90;47.60
2929;DHT22;1474;51.460;7.150;2023-07-02T10:58:20;22.00;45.60
2929;DHT22;1474;51.460;7.150;2023-07-02T11:00:47;22.10;46.50
2929;DHT22;1474;51.460;7.150;2023-07-02T11:03:24;22.40;48.50
2929;DHT22;1474;51.460;7.150;2023-07-02T11:05:52;22.70;45.80
2929;DHT22;1474;51.460;7.150;2023-07-02T11:08:19;22.80;45.70
2929;DHT22;1474;51.460;7.150;2023-07-02T11:10:50;22.90;44.30
2929;DHT22;1474;51.460;7.150;2023-07-02T11:13:17;23.00;44.10
2929;DHT22;1474;51.460;7.150;2023-07-02T11:15:44;23.00;44.00
2929;DHT22;1474;51.460;7.150;2023-07-02T11:18:15;23.20;46.10
2929;DHT22;1474;51.460;7.150;2023-07-02T11:20:44;23.40;46.20
2929;DHT22;1474;51.460;7.150;2023-07-02T11:23:18;23.40;44.10
2929;DHT22;1474;51.460;7.150;2023-07-02T11:25:58;23.40;44.30
2929;DHT22;1474;51.460;7.150;2023-07-02T11:28:26;23.40;45.30
2929;DHT22;1474;51.460;7.150;2023-07-02T11:30:53;23.40;44.20
2929;DHT22;1474;51.460;7.150;2023-07-02T11:33:36;23.30;45.10
2929;DHT22;1474;51.460;7.150;2023-07-02T11:36:05;23.30;45.00
2929;DHT22;1474;51.460;7.150;2023-07-02T11:38:36;23.10;43.40
2929;DHT22;1474;51.460;7.150;2023-07-02T11:41:05;23.10;47.00
2929;DHT22;1474;51.460;7.150;2023-07-02T11:43:31;23.30;47.40
2929;DHT22;1474;51.460;7.150;2023-07-02T11:45:58;23.30;45.40
2929;DHT22;1474;51.460;7.150;2023-07-02T11:48:24;23.40;46.30
2929;DHT22;1474;51.460;7.150;2023-07-02T11:50:50;23.40;45.10
2929;DHT22;1474;51.460;7.150;2023-07-02T11:53:15;23.30;44.30
2929;DHT22;1474;51.460;7.150;2023-07-02T11:55:41;23.30;44.10
2929;DHT22;1474;51.460;7.150;2023-07-02T11:58:07;23.30;44.60
2929;DHT22;1474;51.460;7.150;2023-07-02T12:00:33;23.30;44.20
2929;DHT22;1474;51.460;7.150;2023-07-02T12:02:58;23.20;42.80
2929;DHT22;1474;51.460;7.150;2023-07-02T12:05:24;23.30;43.30
2929;DHT22;1474;51.460;7.150;2023-07-02T12:07:50;23.30;43.50
2929;DHT22;1474;51.460;7.150;2023-07-02T12:10:16;23.40;41.10
2929;DHT22;1474;51.460;7.150;2023-07-02T12:12:42;23.60;42.70
2929;DHT22;1474;51.460;7.150;2023-07-02T12:15:08;23.80;42.70
2929;DHT22;1474;51.460;7.150;2023-07-02T12:17:34;23.90;41.70
2929;DHT22;1474;51.460;7.150;2023-07-02T12:20:00;24.00;40.20
2929;DHT22;1474;51.460;7.150;2023-07-02T12:22:26;24.00;39.50
2929;DHT22;1474;51.460;7.150;2023-07-02T12:24:51;23.90;42.10
2929;DHT22;1474;51.460;7.150;2023-07-02T12:27:21;23.80;41.20
2929;DHT22;1474;51.460;7.150;2023-07-02T12:29:46;23.80;41.70
2929;DHT22;1474;51.460;7.150;2023-07-02T12:32:14;24.00;41.80
2929;DHT22;1474;51.460;7.150;2023-07-02T12:34:40;24.20;40.50
2929;DHT22;1474;51.460;7.150;2023-07-02T12:37:05;24.20;39.70
2929;DHT22;1474;51.460;7.150;2023-07-02T12:39:31;24.00;41.00
2929;DHT22;1474;51.460;7.150;2023-07-02T12:41:57;23.90;41.80
2929;DHT22;1474;51.460;7.150;2023-07-02T12:44:23;23.90;42.70
2929;DHT22;1474;51.460;7.150;2023-07-02T12:46:49;24.00;41.20
2929;DHT22;1474;51.460;7.150;2023-07-02T12:49:15;24.10;43.40
2929;DHT22;1474;51.460;7.150;2023-07-02T12:51:41;24.20;41.40
2929;DHT22;1474;51.460;7.150;2023-07-02T12:54:07;24.30;42.60
2929;DHT22;1474;51.460;7.150;2023-07-02T12:56:32;24.20;40.80
2929;DHT22;1474;51.460;7.150;2023-07-02T12:58:58;24.00;42.60
2929;DHT22;1474;51.460;7.150;2023-07-02T13:01:24;23.90;42.80
2929;DHT22;1474;51.460;7.150;2023-07-02T13:03:50;23.80;42.30
2929;DHT22;1474;51.460;7.150;2023-07-02T13:06:18;23.70;44.20
2929;DHT22;1474;51.460;7.150;2023-07-02T13:08:50;23.80;41.70
2929;DHT22;1474;51.460;7.150;2023-07-02T13:11:15;23.80;43.40
2929;DHT22;1474;51.460;7.150;2023-07-02T13:13:41;23.80;42.90
2929;DHT22;1474;51.460;7.150;2023-07-02T13:16:07;23.80;41.80
2929;DHT22;1474;51.460;7.150;2023-07-02T13:18:32;23.90;42.60
2929;DHT22;1474;51.460;7.150;2023-07-02T13:20:58;24.00;42.50
2929;DHT22;1474;51.460;7.150;2023-07-02T13:23:24;24.00;43.40
2929;DHT22;1474;51.460;7.150;2023-07-02T13:25:50;24.00;42.50
2929;DHT22;1474;51.460;7.150;2023-07-02T13:28:15;23.90;41.60
2929;DHT22;1474;51.460;7.150;2023-07-02T13:30:42;23.90;44.90
2929;DHT22;1474;51.460;7.150;2023-07-02T13:33:07;24.00;43.70
2929;DHT22;1474;51.460;7.150;2023-07-02T13:35:33;24.20;44.10
2929;DHT22;1474;51.460;7.150;2023-07-02T13:37:59;24.30;42.50
2929;DHT22;1474;51.460;7.150;2023-07-02T13:40:25;24.40;42.90
2929;DHT22;1474;51.460;7.150;2023-07-02T13:42:51;24.60;43.30
2929;DHT22;1474;51.460;7.150;2023-07-02T13:45:17;24.80;41.60
2929;DHT22;1474;51.460;7.150;2023-07-02T13:47:43;25.00;43.00
2929;DHT22;1474;51.460;7.150;2023-07-02T13:50:09;25.00;42.60
2929;DHT22;1474;51.460;7.150;2023-07-02T13:52:35;25.00;43.20
2929;DHT22;1474;51.460;7.150;2023-07-02T13:55:00;24.90;43.30
2929;DHT22;1474;51.460;7.150;2023-07-02T13:57:26;24.90;44.10
2929;DHT22;1474;51.460;7.150;2023-07-02T13:59:52;24.90;42.40
2929;DHT22;1474;51.460;7.150;2023-07-02T14:02:18;24.90;41.90
2929;DHT22;1474;51.460;7.150;2023-07-02T14:04:44;24.70;42.70
2929;DHT22;1474;51.460;7.150;2023-07-02T14:07:11;24.70;41.50
2929;DHT22;1474;51.460;7.150;2023-07-02T14:09:37;24.60;44.10
2929;DHT22;1474;51.460;7.150;2023-07-02T14:12:03;24.70;42.90
2929;DHT22;1474;51.460;7.150;2023-07-02T14:14:29;24.90;43.70
2929;DHT22;1474;51.460;7.150;2023-07-02T14:16:55;25.00;44.00
2929;DHT22;1474;51.460;7.150;2023-07-02T14:19:20;25.30;42.00
2929;DHT22;1474;51.460;7.150;2023-07-02T14:21:46;25.30;42.40
2929;DHT22;1474;51.460;7.150;2023-07-02T14:24:12;25.30;42.30
2929;DHT22;1474;51.460;7.150;2023-07-02T14:26:41;25.40;40.70
2929;DHT22;1474;51.460;7.150;2023-07-02T14:29:09;25.30;41.40
2929;DHT22;1474;51.460;7.150;2023-07-02T14:31:35;25.10;42.60
2929;DHT22;1474;51.460;7.150;2023-07-02T14:34:00;25.10;42.10
2929;DHT22;1474;51.460;7.150;2023-07-02T14:36:26;25.10;42.30
2929;DHT22;1474;51.460;7.150;2023-07-02T14:38:52;25.00;42.30
2929;DHT22;1474;51.460;7.150;2023-07-02T14:41:17;24.90;42.40
2929;DHT22;1474;51.460;7.150;2023-07-02T14:43:43;24.90;42.90
2929;DHT22;1474;51.460;7.150;2023-07-02T14:46:09;24.90;44.20
2929;DHT22;1474;51.460;7.150;2023-07-02T14:48:36;24.80;42.70
2929;DHT22;1474;51.460;7.150;2023-07-02T14:51:03;24.70;42.80
2929;DHT22;1474;51.460;7.150;2023-07-02T14:53:31;24.60;42.80
2929;DHT22;1474;51.460;7.150;2023-07-02T14:55:59;24.70;43.00
2929;DHT22;1474;51.460;7.150;2023-07-02T14:58:27;24.70;42.20
2929;DHT22;1474;51.460;7.150;2023-07-02T15:00:56;24.70;43.50
2929;DHT22;1474;51.460;7.150;2023-07-02T15:03:24;24.70;43.00
2929;DHT22;1474;51.460;7.150;2023-07-02T15:05:51;24.80;43.40
2929;DHT22;1474;51.460;7.150;2023-07-02T15:08:18;24.70;43.10
2929;DHT22;1474;51.460;7.150;2023-07-02T15:10:47;24.60;43.80
2929;DHT22;1474;51.460;7.150;2023-07-02T15:13:15;24.50;43.50
2929;DHT22;1474;51.460;7.150;2023-07-02T15:15:44;24.60;44.40
2929;DHT22;1474;51.460;7.150;2023-07-02T15:18:11;24.50;43.10
2929;DHT22;1474;51.460;7.150;2023-07-02T15:20:37;24.40;43.40
2929;DHT22;1474;51.460;7.150;2023-07-02T15:23:03;24.40;42.90
2929;DHT22;1474;51.460;7.150;2023-07-02T15:25:32;24.40;44.00
2929;DHT22;1474;51.460;7.150;2023-07-02T15:27:58;24.60;44.40
2929;DHT22;1474;51.460;7.150;2023-07-02T15:30:24;24.80;44.00
2929;DHT22;1474;51.460;7.150;2023-07-02T15:32:50;24.90;42.20
2929;DHT22;1474;51.460;7.150;2023-07-02T15:35:15;25.00;41.80
2929;DHT22;1474;51.460;7.150;2023-07-02T15:37:41;24.90;41.30
2929;DHT22;1474;51.460;7.150;2023-07-02T15:40:08;24.70;42.20
2929;DHT22;1474;51.460;7.150;2023-07-02T15:42:34;24.60;43.50
2929;DHT22;1474;51.460;7.150;2023-07-02T15:45:02;24.70;42.30
2929;DHT22;1474;51.460;7.150;2023-07-02T15:47:28;24.60;42.50
2929;DHT22;1474;51.460;7.150;2023-07-02T15:49:54;24.50;42.00
2929;DHT22;1474;51.460;7.150;2023-07-02T15:52:20;24.30;42.20
2929;DHT22;1474;51.460;7.150;2023-07-02T15:54:46;24.40;43.10
2929;DHT22;1474;51.460;7.150;2023-07-02T15:57:12;24.40;43.30
2929;DHT22;1474;51.460;7.150;2023-07-02T15:59:38;24.40;42.20
2929;DHT22;1474;51.460;7.150;2023-07-02T16:02:04;24.30;43.20
2929;DHT22;1474;51.460;7.150;2023-07-02T16:04:31;24.30;43.20
2929;DHT22;1474;51.460;7.150;2023-07-02T16:06:57;24.20;42.30
2929;DHT22;1474;51.460;7.150;2023-07-02T16:09:23;24.00;43.30